createdAt,value
2023-05-22T00:01:57.835Z,97269.34
2023-05-22T00:04:30.269Z,97271.13
2023-05-22T00:06:59.169Z,97264.41
2023-05-22T00:09:27.710Z,97265.66
2023-05-22T00:11:56.582Z,97258.06
2023-05-22T00:14:24.854Z,97258.50
2023-05-22T00:16:53.599Z,97256.09
2023-05-22T00:19:23.792Z,97254.41
2023-05-22T00:21:54.378Z,97256.53
2023-05-22T00:24:23.737Z,97257.59
2023-05-22T00:26:52.514Z,97256.09
2023-05-22T00:29:21.009Z,97248.50
2023-05-22T00:31:49.961Z,97250.13
2023-05-22T00:34:19.674Z,97250.72
2023-05-22T00:36:48.386Z,97248.97
2023-05-22T00:39:19.801Z,97242.94
2023-05-22T00:41:48.674Z,97248.88
2023-05-22T00:44:17.083Z,97248.09
2023-05-22T00:46:45.951Z,97248.97
2023-05-22T00:49:14.890Z,97244.91
2023-05-22T00:51:43.773Z,97250.13
2023-05-22T00:54:14.680Z,97254.38
2023-05-22T00:56:46.240Z,97244.75
2023-05-22T00:59:14.726Z,97258.44
2023-05-22T01:01:43.636Z,97241.13
2023-05-22T01:04:13.698Z,97241.66
2023-05-22T01:06:42.960Z,97246.69
2023-05-22T01:09:11.258Z,97245.09
2023-05-22T01:11:51.175Z,97246.50
2023-05-22T01:14:31.251Z,97252.50
2023-05-22T01:17:09.630Z,97244.94
2023-05-22T01:20:01.316Z,97250.84
2023-05-22T01:22:58.895Z,97243.84
2023-05-22T01:25:55.144Z,97245.28
2023-05-22T01:28:43.489Z,97242.69
2023-05-22T01:31:14.882Z,97243.44
2023-05-22T01:33:48.467Z,97244.47
2023-05-22T01:36:20.360Z,97249.59
2023-05-22T01:38:50.321Z,97253.03
2023-05-22T01:41:18.910Z,97253.16
2023-05-22T01:43:47.886Z,97251.56
2023-05-22T01:46:18.239Z,97253.34
2023-05-22T01:48:46.654Z,97251.13
2023-05-22T01:51:20.947Z,97252.03
2023-05-22T01:53:57.199Z,97252.97
2023-05-22T01:56:32.318Z,97259.22
2023-05-22T01:59:05.829Z,97255.00
2023-05-22T02:01:39.780Z,97256.75
2023-05-22T02:04:09.435Z,97268.34
2023-05-22T02:06:40.176Z,97250.94
2023-05-22T02:09:09.362Z,97264.41
2023-05-22T02:11:41.958Z,97265.75
2023-05-22T02:14:13.578Z,97247.81
2023-05-22T02:16:48.471Z,97249.31
2023-05-22T02:19:16.902Z,97255.22
2023-05-22T02:21:45.444Z,97245.06
2023-05-22T02:24:14.186Z,97249.88
2023-05-22T02:26:42.655Z,97236.34
2023-05-22T02:29:11.027Z,97231.72
2023-05-22T02:31:39.829Z,97238.72
2023-05-22T02:34:09.704Z,97239.84
2023-05-22T02:36:38.813Z,97231.50
2023-05-22T02:39:07.032Z,97236.78
2023-05-22T02:41:35.226Z,97232.25
2023-05-22T02:44:03.981Z,97235.78
2023-05-22T02:46:32.402Z,97233.84
2023-05-22T02:49:01.154Z,97229.53
2023-05-22T02:51:31.056Z,97232.75
2023-05-22T02:53:59.310Z,97238.75
2023-05-22T02:56:29.536Z,97232.53
2023-05-22T02:58:57.942Z,97236.19
2023-05-22T03:01:27.453Z,97233.31
2023-05-22T03:03:56.671Z,97234.38
2023-05-22T03:06:25.492Z,97234.56
2023-05-22T03:08:55.315Z,97238.47
2023-05-22T03:11:24.244Z,97230.84
2023-05-22T03:13:52.779Z,97227.06
2023-05-22T03:16:21.577Z,97237.06
2023-05-22T03:18:53.571Z,97238.91
2023-05-22T03:21:22.214Z,97250.88
2023-05-22T03:23:50.643Z,97240.03
2023-05-22T03:26:21.585Z,97241.72
2023-05-22T03:28:51.316Z,97245.16
2023-05-22T03:31:19.682Z,97244.13
2023-05-22T03:33:48.149Z,97241.88
2023-05-22T03:36:17.884Z,97241.28
2023-05-22T03:38:46.201Z,97255.28
2023-05-22T03:41:14.802Z,97245.84
2023-05-22T03:43:45.287Z,97250.03
2023-05-22T03:46:14.236Z,97246.94
2023-05-22T03:48:42.576Z,97245.22
2023-05-22T03:51:10.724Z,97252.06
2023-05-22T03:53:39.501Z,97250.13
2023-05-22T03:56:08.253Z,97245.25
2023-05-22T03:58:36.517Z,97250.63
2023-05-22T04:01:07.150Z,97259.78
2023-05-22T04:03:35.406Z,97260.91
2023-05-22T04:06:03.735Z,97257.97
2023-05-22T04:08:32.626Z,97253.78
2023-05-22T04:11:01.565Z,97269.59
2023-05-22T04:13:31.191Z,97252.31
2023-05-22T04:15:59.740Z,97256.66
2023-05-22T04:18:29.557Z,97267.31
2023-05-22T04:20:57.621Z,97271.91
2023-05-22T04:23:26.146Z,97298.09
2023-05-22T04:25:55.549Z,97280.13
2023-05-22T04:28:24.112Z,97293.34
2023-05-22T04:30:52.515Z,97292.16
2023-05-22T04:33:21.650Z,97314.47
2023-05-22T04:35:51.739Z,97308.66
2023-05-22T04:38:20.257Z,97284.25
2023-05-22T04:40:48.871Z,97333.28
2023-05-22T04:43:19.174Z,97337.16
2023-05-22T04:45:47.292Z,97351.09
2023-05-22T04:48:16.102Z,97351.28
2023-05-22T04:50:46.588Z,97341.56
2023-05-22T04:53:16.600Z,97373.16
2023-05-22T04:55:46.115Z,97339.00
2023-05-22T04:58:14.371Z,97365.78
2023-05-22T05:00:43.538Z,97372.56
2023-05-22T05:03:11.953Z,97362.91
2023-05-22T05:05:40.256Z,97392.81
2023-05-22T05:08:09.059Z,97392.25
2023-05-22T05:10:38.964Z,97389.88
2023-05-22T05:13:07.360Z,97421.41
2023-05-22T05:15:36.052Z,97407.38
2023-05-22T05:18:04.390Z,97380.03
2023-05-22T05:20:32.776Z,97442.56
2023-05-22T05:23:01.358Z,97409.31
2023-05-22T05:25:29.659Z,97469.81
2023-05-22T05:27:59.332Z,97455.47
2023-05-22T05:30:30.600Z,97493.59
2023-05-22T05:32:59.389Z,97506.19
2023-05-22T05:35:31.607Z,97495.03
2023-05-22T05:38:05.515Z,97454.78
2023-05-22T05:40:37.228Z,97479.50
2023-05-22T05:43:09.414Z,97501.06
2023-05-22T05:45:39.775Z,97512.31
2023-05-22T05:48:12.408Z,97481.13
2023-05-22T05:50:42.139Z,97506.00
2023-05-22T05:53:10.580Z,97499.06
2023-05-22T05:55:39.306Z,97535.81
2023-05-22T05:58:10.325Z,97542.91
2023-05-22T06:00:39.443Z,97515.19
2023-05-22T06:03:08.148Z,97535.31
2023-05-22T06:05:37.662Z,97566.56
2023-05-22T06:08:08.983Z,97614.84
2023-05-22T06:10:39.942Z,97594.22
2023-05-22T06:13:10.204Z,97562.94
2023-05-22T06:15:38.991Z,97571.16
2023-05-22T06:18:07.781Z,97602.34
2023-05-22T06:20:36.473Z,97598.31
2023-05-22T06:23:04.964Z,97607.25
2023-05-22T06:25:33.990Z,97555.25
2023-05-22T06:28:02.606Z,97567.75
2023-05-22T06:33:08.188Z,97583.78
2023-05-22T06:35:36.851Z,97618.16
2023-05-22T06:38:05.135Z,97602.31
2023-05-22T06:40:33.957Z,97636.88
2023-05-22T06:43:03.751Z,97652.25
2023-05-22T06:45:33.785Z,97618.34
2023-05-22T06:48:01.923Z,97609.94
2023-05-22T06:50:31.385Z,97628.78
2023-05-22T06:53:00.888Z,97573.00
2023-05-22T06:55:30.085Z,97615.34
2023-05-22T06:57:58.333Z,97611.94
2023-05-22T07:00:27.363Z,97659.28
2023-05-22T07:02:57.418Z,97693.03
2023-05-22T07:05:25.976Z,97676.34
2023-05-22T07:07:55.238Z,97673.00
2023-05-22T07:10:25.341Z,97659.38
2023-05-22T07:12:53.983Z,97625.06
2023-05-22T07:15:23.249Z,97653.31
2023-05-22T07:17:51.933Z,97661.31
2023-05-22T07:20:22.196Z,97598.91
2023-05-22T07:22:51.134Z,97618.16
2023-05-22T07:25:20.454Z,97631.25
2023-05-22T07:27:49.418Z,97625.84
2023-05-22T07:30:19.046Z,97593.81
2023-05-22T07:32:47.700Z,97624.09
2023-05-22T07:35:15.984Z,97690.41
2023-05-22T07:37:47.255Z,97690.69
2023-05-22T07:40:17.663Z,97710.00
2023-05-22T07:42:46.250Z,97698.88
2023-05-22T07:45:15.035Z,97712.38
2023-05-22T07:47:43.360Z,97637.69
2023-05-22T07:50:11.913Z,97660.66
2023-05-22T07:52:40.782Z,97579.13
2023-05-22T07:55:11.512Z,97576.78
2023-05-22T07:57:41.312Z,97649.38
2023-05-22T08:00:14.470Z,97620.88
2023-05-22T08:02:43.391Z,97622.97
2023-05-22T08:05:12.411Z,97647.06
2023-05-22T08:07:40.917Z,97602.59
2023-05-22T08:10:17.197Z,97686.56
2023-05-22T08:12:45.638Z,97637.19
2023-05-22T08:15:23.678Z,97657.25
2023-05-22T08:17:52.297Z,97548.41
2023-05-22T08:20:20.752Z,97595.47
2023-05-22T08:22:50.273Z,97658.19
2023-05-22T08:25:20.525Z,97627.69
2023-05-22T08:27:48.847Z,97607.81
2023-05-22T08:30:18.311Z,97669.97
2023-05-22T08:32:46.391Z,97567.91
2023-05-22T08:35:15.590Z,97610.38
2023-05-22T08:37:44.896Z,97555.97
2023-05-22T08:40:13.971Z,97552.94
2023-05-22T08:42:43.980Z,97527.31
2023-05-22T08:45:13.174Z,97619.63
2023-05-22T08:47:44.413Z,97609.28
2023-05-22T08:50:15.061Z,97569.25
2023-05-22T08:52:50.088Z,97582.97
2023-05-22T08:55:20.073Z,97536.50
2023-05-22T08:57:51.221Z,97579.03
2023-05-22T09:00:21.196Z,97512.34
2023-05-22T09:02:50.921Z,97480.44
2023-05-22T09:05:19.328Z,97478.94
2023-05-22T09:07:49.538Z,97483.31
2023-05-22T09:10:17.884Z,97561.19
2023-05-22T09:13:09.917Z,97557.16
2023-05-22T09:15:38.450Z,97557.97
2023-05-22T09:18:07.072Z,97525.13
2023-05-22T09:20:40.697Z,97494.03
2023-05-22T09:23:18.533Z,97536.69
2023-05-22T09:25:48.202Z,97542.34
2023-05-22T09:28:17.986Z,97492.50
2023-05-22T09:30:50.380Z,97598.66
2023-05-22T09:33:18.851Z,97609.44
2023-05-22T09:35:48.491Z,97651.88
2023-05-22T09:38:17.611Z,97531.41
2023-05-22T09:40:46.035Z,97523.06
2023-05-22T09:43:20.780Z,97534.41
2023-05-22T09:45:48.980Z,97515.19
2023-05-22T09:48:19.525Z,97506.06
2023-05-22T09:50:55.438Z,97563.75
2023-05-22T09:53:27.411Z,97603.50
2023-05-22T09:55:58.496Z,97563.41
2023-05-22T09:58:32.015Z,97511.88
2023-05-22T10:01:02.999Z,97558.78
2023-05-22T10:03:36.569Z,97486.00
2023-05-22T10:06:07.748Z,97496.38
2023-05-22T10:08:43.235Z,97545.53
2023-05-22T10:11:12.766Z,97540.19
2023-05-22T10:13:43.162Z,97515.56
2023-05-22T10:16:12.176Z,97498.91
2023-05-22T10:18:42.451Z,97526.50
2023-05-22T10:21:10.810Z,97529.06
2023-05-22T10:23:39.379Z,97511.47
2023-05-22T10:26:08.992Z,97466.22
2023-05-22T10:28:43.288Z,97429.31
2023-05-22T10:31:20.212Z,97470.72
2023-05-22T10:33:52.633Z,97402.00
2023-05-22T10:36:30.305Z,97434.25
2023-05-22T10:39:12.880Z,97448.63
2023-05-22T10:41:42.077Z,97426.00
2023-05-22T10:44:19.602Z,97433.56
2023-05-22T10:46:51.520Z,97468.84
2023-05-22T10:49:24.145Z,97495.78
2023-05-22T10:51:57.843Z,97443.38
2023-05-22T10:54:43.892Z,97416.19
2023-05-22T10:57:16.475Z,97427.31
2023-05-22T10:59:48.261Z,97353.81
2023-05-22T11:02:30.202Z,97346.75
2023-05-22T11:05:27.753Z,97340.50
2023-05-22T11:08:12.022Z,97341.09
2023-05-22T11:10:56.663Z,97383.63
2023-05-22T11:13:29.391Z,97363.34
2023-05-22T11:15:59.546Z,97331.06
2023-05-22T11:18:30.822Z,97335.69
2023-05-22T11:21:00.764Z,97307.19
2023-05-22T11:23:28.987Z,97361.53
2023-05-22T11:25:57.464Z,97376.44
2023-05-22T11:28:25.877Z,97311.31
2023-05-22T11:30:55.713Z,97320.78
2023-05-22T11:33:26.337Z,97341.63
2023-05-22T11:35:55.206Z,97317.97
2023-05-22T11:38:23.875Z,97293.66
2023-05-22T11:40:54.323Z,97313.09
2023-05-22T11:43:33.242Z,97271.16
2023-05-22T11:46:07.163Z,97315.41
2023-05-22T11:48:37.261Z,97244.50
2023-05-22T11:51:06.066Z,97316.53
2023-05-22T11:53:36.205Z,97314.19
2023-05-22T11:56:13.066Z,97288.81
2023-05-22T11:58:45.646Z,97274.00
2023-05-22T12:01:13.907Z,97299.91
2023-05-22T12:03:47.033Z,97298.50
2023-05-22T12:06:17.151Z,97310.16
2023-05-22T12:08:46.088Z,97333.47
2023-05-22T12:11:14.928Z,97329.19
2023-05-22T12:13:44.123Z,97317.19
2023-05-22T12:16:23.480Z,97283.75
2023-05-22T12:18:55.634Z,97256.63
2023-05-22T12:21:24.730Z,97259.50
2023-05-22T12:23:53.369Z,97275.19
2023-05-22T12:26:21.781Z,97296.88
2023-05-22T12:28:54.235Z,97289.25
2023-05-22T12:31:22.905Z,97240.03
2023-05-22T12:33:54.667Z,97271.13
2023-05-22T12:36:34.992Z,97268.31
2023-05-22T12:39:04.252Z,97242.13
2023-05-22T12:41:32.499Z,97282.09
2023-05-22T12:44:02.093Z,97313.59
2023-05-22T12:46:32.063Z,97282.25
2023-05-22T12:49:00.506Z,97272.22
2023-05-22T12:51:33.700Z,97250.59
2023-05-22T12:54:04.856Z,97209.31
2023-05-22T12:56:33.441Z,97198.25
2023-05-22T12:59:01.824Z,97215.38
2023-05-22T13:01:30.003Z,97181.44
2023-05-22T13:03:58.478Z,97197.88
2023-05-22T13:06:29.102Z,97206.69
2023-05-22T13:09:00.544Z,97224.41
2023-05-22T13:11:29.161Z,97229.75
2023-05-22T13:13:57.703Z,97241.06
2023-05-22T13:16:25.938Z,97254.84
2023-05-22T13:18:55.663Z,97207.84
2023-05-22T13:21:47.122Z,97218.91
2023-05-22T13:24:17.044Z,97225.41
2023-05-22T13:26:44.995Z,97188.59
2023-05-22T13:29:13.192Z,97202.63
2023-05-22T13:31:42.009Z,97196.94
2023-05-22T13:34:10.225Z,97225.88
2023-05-22T13:36:38.437Z,97226.34
2023-05-22T13:39:07.214Z,97267.09
2023-05-22T13:41:37.057Z,97244.63
2023-05-22T13:44:05.390Z,97232.03
2023-05-22T13:46:34.285Z,97236.41
2023-05-22T13:49:02.460Z,97234.47
2023-05-22T13:51:30.649Z,97226.72
2023-05-22T13:53:59.639Z,97204.75
2023-05-22T13:56:27.932Z,97186.88
2023-05-22T13:58:57.982Z,97189.97
2023-05-22T14:01:26.608Z,97176.28
2023-05-22T14:03:54.488Z,97200.03
2023-05-22T14:06:22.870Z,97181.09
2023-05-22T14:08:51.443Z,97204.53
2023-05-22T14:11:20.249Z,97193.22
2023-05-22T14:13:48.624Z,97232.13
2023-05-22T14:16:18.998Z,97188.00
2023-05-22T14:18:47.289Z,97202.38
2023-05-22T14:21:15.816Z,97188.91
2023-05-22T14:23:44.343Z,97205.34
2023-05-22T14:26:14.308Z,97182.97
2023-05-22T14:28:43.211Z,97183.44
2023-05-22T14:31:11.392Z,97200.81
2023-05-22T14:33:41.211Z,97185.91
2023-05-22T14:36:10.096Z,97155.47
2023-05-22T14:38:38.869Z,97180.34
2023-05-22T14:41:07.040Z,97175.19
2023-05-22T14:43:37.546Z,97177.81
2023-05-22T14:46:05.814Z,97161.53
2023-05-22T14:48:33.928Z,97146.19
2023-05-22T14:51:03.584Z,97163.50
2023-05-22T14:53:31.779Z,97176.72
2023-05-22T14:55:59.774Z,97174.34
2023-05-22T14:58:28.256Z,97146.69
2023-05-22T15:00:56.280Z,97158.19
2023-05-22T15:03:24.212Z,97146.88
2023-05-22T15:05:52.939Z,97169.66
2023-05-22T15:08:22.304Z,97158.50
2023-05-22T15:10:50.458Z,97146.56
2023-05-22T15:13:19.084Z,97134.53
2023-05-22T15:15:46.983Z,97144.22
2023-05-22T15:18:16.688Z,97150.72
2023-05-22T15:20:45.329Z,97154.19
2023-05-22T15:23:13.780Z,97151.06
2023-05-22T15:25:43.685Z,97153.06
2023-05-22T15:28:12.193Z,97123.91
2023-05-22T15:30:41.924Z,97137.97
2023-05-22T15:33:12.204Z,97125.16
2023-05-22T15:35:42.129Z,97127.63
2023-05-22T15:38:13.084Z,97112.25
2023-05-22T15:40:43.568Z,97097.94
2023-05-22T15:43:11.997Z,97098.41
2023-05-22T15:45:40.916Z,97083.72
2023-05-22T15:48:09.619Z,97104.44
2023-05-22T15:50:38.176Z,97090.59
2023-05-22T15:53:06.528Z,97063.41
2023-05-22T15:55:34.732Z,97061.44
2023-05-22T15:58:06.792Z,97045.06
2023-05-22T16:00:41.233Z,97035.69
2023-05-22T16:03:10.600Z,97051.28
2023-05-22T16:05:40.859Z,97074.13
2023-05-22T16:08:11.340Z,97049.81
2023-05-22T16:10:42.105Z,97053.38
2023-05-22T16:13:13.020Z,97038.06
2023-05-22T16:15:43.092Z,97010.88
2023-05-22T16:18:13.777Z,97000.09
2023-05-22T16:20:42.559Z,97011.06
2023-05-22T16:23:11.310Z,97017.13
2023-05-22T16:25:42.817Z,97038.09
2023-05-22T16:28:13.174Z,97054.56
2023-05-22T16:30:41.736Z,97024.75
2023-05-22T16:33:10.213Z,97049.59
2023-05-22T16:35:39.132Z,97053.28
2023-05-22T16:38:11.938Z,97052.44
2023-05-22T16:40:40.627Z,97055.63
2023-05-22T16:43:09.936Z,97050.38
2023-05-22T16:45:39.880Z,97053.50
2023-05-22T16:48:08.989Z,97035.81
2023-05-22T16:50:43.250Z,97023.19
2023-05-22T16:53:11.990Z,97052.38
2023-05-22T16:55:40.402Z,97052.84
2023-05-22T16:58:09.707Z,97047.38
2023-05-22T17:00:40.595Z,97046.94
2023-05-22T17:03:09.230Z,97033.91
2023-05-22T17:05:39.199Z,97016.78
2023-05-22T17:08:08.112Z,97022.16
2023-05-22T17:10:36.547Z,97018.41
2023-05-22T17:13:05.513Z,97016.28
2023-05-22T17:15:33.465Z,97014.31
2023-05-22T17:18:03.635Z,97014.59
2023-05-22T17:20:34.293Z,96997.22
2023-05-22T17:23:03.077Z,97011.19
2023-05-22T17:25:31.844Z,97005.09
2023-05-22T17:27:59.817Z,97008.81
2023-05-22T17:30:27.938Z,97018.22
2023-05-22T17:32:58.350Z,97005.94
2023-05-22T17:35:27.962Z,97020.41
2023-05-22T17:37:56.166Z,97024.03
2023-05-22T17:40:32.633Z,97028.66
2023-05-22T17:43:12.960Z,97025.94
2023-05-22T17:45:42.256Z,97008.03
2023-05-22T17:48:11.336Z,96995.72
2023-05-22T17:50:43.007Z,97004.03
2023-05-22T17:53:11.014Z,96984.06
2023-05-22T17:55:39.005Z,97002.03
2023-05-22T17:58:08.071Z,97001.25
2023-05-22T18:00:36.114Z,97010.25
2023-05-22T18:03:04.291Z,97000.09
2023-05-22T18:05:36.099Z,96998.34
2023-05-22T18:08:05.549Z,96990.53
2023-05-22T18:10:33.756Z,96990.59
2023-05-22T18:13:01.829Z,96995.53
2023-05-22T18:15:29.790Z,96983.03
2023-05-22T18:17:57.875Z,96985.41
2023-05-22T18:20:26.452Z,96976.91
2023-05-22T18:22:54.535Z,96976.69
2023-05-22T18:25:25.355Z,96964.03
2023-05-22T18:27:56.188Z,96967.31
2023-05-22T18:30:25.097Z,96974.63
2023-05-22T18:32:53.808Z,96965.09
2023-05-22T18:35:22.548Z,96970.84
2023-05-22T18:37:50.794Z,96966.34
2023-05-22T18:40:19.390Z,96968.22
2023-05-22T18:42:49.553Z,96974.72
2023-05-22T18:45:17.808Z,96966.69
2023-05-22T18:47:46.431Z,96959.00
2023-05-22T18:50:15.184Z,96958.81
2023-05-22T18:52:43.369Z,96942.16
2023-05-22T18:55:12.252Z,96930.66
2023-05-22T18:57:41.212Z,96954.00
2023-05-22T19:00:12.338Z,96955.16
2023-05-22T19:02:40.769Z,96958.28
2023-05-22T19:05:09.818Z,96958.28
2023-05-22T19:07:37.935Z,96959.22
2023-05-22T19:10:08.320Z,96971.03
2023-05-22T19:12:36.563Z,96990.81
2023-05-22T19:15:06.892Z,96993.97
2023-05-22T19:17:37.418Z,96997.91
2023-05-22T19:20:07.573Z,96998.41
2023-05-22T19:22:36.204Z,97005.59
2023-05-22T19:25:11.807Z,97008.00
2023-05-22T19:27:41.341Z,97011.13
2023-05-22T19:30:10.919Z,97012.34
2023-05-22T19:32:40.956Z,97015.16
2023-05-22T19:35:09.699Z,97019.94
2023-05-22T19:37:38.551Z,97019.94
2023-05-22T19:40:09.792Z,97016.84
2023-05-22T19:42:39.957Z,97035.81
2023-05-22T19:45:10.569Z,97025.97
2023-05-22T19:47:40.601Z,97025.66
2023-05-22T19:50:09.648Z,97035.09
2023-05-22T19:52:37.792Z,97032.38
2023-05-22T19:55:07.083Z,97032.38
2023-05-22T19:57:35.219Z,97020.56
2023-05-22T20:00:08.116Z,97029.22
2023-05-22T20:02:36.440Z,97037.56
2023-05-22T20:05:09.985Z,97009.91
2023-05-22T20:07:38.150Z,97034.41
2023-05-22T20:10:07.287Z,97026.13
2023-05-22T20:12:36.178Z,97035.22
2023-05-22T20:15:06.970Z,97030.88
2023-05-22T20:17:36.667Z,97028.91
2023-05-22T20:20:07.916Z,97015.50
2023-05-22T20:22:37.106Z,97023.38
2023-05-22T20:25:06.094Z,97027.28
2023-05-22T20:27:34.349Z,97018.63
2023-05-22T20:30:03.060Z,97027.66
2023-05-22T20:32:32.525Z,97020.94
2023-05-22T20:35:01.310Z,97015.81
2023-05-22T20:37:35.317Z,97031.97
2023-05-22T20:40:09.804Z,97030.81
2023-05-22T20:42:38.577Z,97048.56
2023-05-22T20:45:07.871Z,97050.13
2023-05-22T20:47:36.489Z,97054.44
2023-05-22T20:50:05.732Z,97050.13
2023-05-22T20:52:37.218Z,97048.53
2023-05-22T20:55:07.885Z,97046.97
2023-05-22T20:57:36.080Z,97053.69
2023-05-22T21:00:05.933Z,97053.69
2023-05-22T21:02:34.563Z,97066.72
2023-05-22T21:05:02.606Z,97057.56
2023-05-22T21:07:30.522Z,97062.72
2023-05-22T21:10:00.400Z,97061.06
2023-05-22T21:12:28.887Z,97061.06
2023-05-22T21:14:58.945Z,97061.88
2023-05-22T21:17:27.572Z,97059.41
2023-05-22T21:19:55.699Z,97063.72
2023-05-22T21:22:23.898Z,97066.03
2023-05-22T21:24:52.472Z,97052.28
2023-05-22T21:27:21.943Z,97059.72
2023-05-22T21:29:49.939Z,97054.09
2023-05-22T21:32:18.457Z,97050.88
2023-05-22T21:34:46.746Z,97047.09
2023-05-22T21:37:15.114Z,97058.53
2023-05-22T21:39:43.521Z,97054.22
2023-05-22T21:42:11.507Z,97055.72
2023-05-22T21:44:41.272Z,97044.66
2023-05-22T21:47:09.599Z,97060.38
2023-05-22T21:49:39.540Z,97054.41
2023-05-22T21:52:07.899Z,97057.06
2023-05-22T21:54:36.474Z,97055.88
2023-05-22T21:57:04.722Z,97063.69
2023-05-22T21:59:32.681Z,97065.63
2023-05-22T22:02:02.681Z,97057.97
2023-05-22T22:04:30.635Z,97050.78
2023-05-22T22:06:58.787Z,97066.63
2023-05-22T22:09:27.405Z,97057.00
2023-05-22T22:11:55.368Z,97066.47
2023-05-22T22:14:24.089Z,97064.06
2023-05-22T22:16:54.743Z,97058.13
2023-05-22T22:19:24.491Z,97053.81
2023-05-22T22:21:52.574Z,97057.47
2023-05-22T22:24:21.015Z,97051.78
2023-05-22T22:26:50.087Z,97050.25
2023-05-22T22:29:18.174Z,97050.56
2023-05-22T22:31:48.014Z,97049.13
2023-05-22T22:34:16.032Z,97058.41
2023-05-22T22:36:45.589Z,97051.34
2023-05-22T22:39:14.193Z,97055.91
2023-05-22T22:41:43.378Z,97063.78
2023-05-22T22:44:11.548Z,97057.38
2023-05-22T22:46:40.058Z,97059.75
2023-05-22T22:49:08.841Z,97070.41
2023-05-22T22:51:36.919Z,97071.50
2023-05-22T22:54:06.955Z,97069.91
2023-05-22T22:56:35.092Z,97074.03
2023-05-22T22:59:03.238Z,97079.13
2023-05-22T23:01:31.826Z,97085.84
2023-05-22T23:03:59.814Z,97075.88
2023-05-22T23:06:29.685Z,97078.19
2023-05-22T23:08:59.416Z,97072.31
2023-05-22T23:11:35.083Z,97076.13
2023-05-22T23:14:04.385Z,97073.91
2023-05-22T23:16:35.926Z,97068.16
2023-05-22T23:19:05.295Z,97070.03
2023-05-22T23:21:33.585Z,97067.09
2023-05-22T23:24:04.137Z,97072.78
2023-05-22T23:26:34.776Z,97069.16
2023-05-22T23:29:03.662Z,97065.34
2023-05-22T23:31:31.854Z,97067.06
2023-05-22T23:34:00.284Z,97057.53
2023-05-22T23:36:28.357Z,97059.78
2023-05-22T23:38:56.688Z,97070.09
2023-05-22T23:41:25.508Z,97071.13
2023-05-22T23:43:55.134Z,97064.28
2023-05-22T23:46:24.854Z,97065.16
2023-05-22T23:48:53.379Z,97073.47
2023-05-22T23:51:21.936Z,97077.91
2023-05-22T23:53:50.517Z,97076.50
2023-05-22T23:56:18.682Z,97072.78
2023-05-22T23:58:46.636Z,97068.94
